createdAt,value
2023-03-22T00:00:13.810Z,10.23
2023-03-22T00:01:21.849Z,10.93
2023-03-22T00:02:25.869Z,8.65
2023-03-22T00:03:28.147Z,7.63
2023-03-22T00:04:29.899Z,11.43
2023-03-22T00:05:32.022Z,8.65
2023-03-22T00:06:36.157Z,8.93
2023-03-22T00:07:38.192Z,10.07
2023-03-22T00:08:41.413Z,10.68
2023-03-22T00:09:43.068Z,11.98
2023-03-22T00:10:48.125Z,10.05
2023-03-22T00:11:51.061Z,9.73
2023-03-22T00:12:52.987Z,8.82
2023-03-22T00:13:57.002Z,9.30
2023-03-22T00:15:00.340Z,12.68
2023-03-22T00:16:02.953Z,10.40
2023-03-22T00:17:04.966Z,8.23
2023-03-22T00:18:06.614Z,9.20
2023-03-22T00:19:08.248Z,8.23
2023-03-22T00:20:11.646Z,9.70
2023-03-22T00:21:15.485Z,8.43
2023-03-22T00:22:17.175Z,9.32
2023-03-22T00:23:19.625Z,11.77
2023-03-22T00:24:21.379Z,12.80
2023-03-22T00:25:23.126Z,9.43
2023-03-22T00:26:25.588Z,9.48
2023-03-22T00:27:27.622Z,8.02
2023-03-22T00:28:29.521Z,11.25
2023-03-22T00:29:31.432Z,9.65
2023-03-22T00:30:33.762Z,9.65
2023-03-22T00:31:35.570Z,10.70
2023-03-22T00:32:42.567Z,9.93
2023-03-22T00:33:44.365Z,9.25
2023-03-22T00:34:46.426Z,8.15
2023-03-22T00:35:52.289Z,7.85
2023-03-22T00:36:56.206Z,9.60
2023-03-22T00:37:58.507Z,7.38
2023-03-22T00:39:00.210Z,9.13
2023-03-22T00:40:01.972Z,9.40
2023-03-22T00:41:13.829Z,9.75
2023-03-22T00:42:15.796Z,8.70
2023-03-22T00:43:17.593Z,10.05
2023-03-22T00:44:19.261Z,9.65
2023-03-22T00:45:20.969Z,9.40
2023-03-22T00:46:22.750Z,12.25
2023-03-22T00:47:24.391Z,9.13
2023-03-22T00:48:26.435Z,8.88
2023-03-22T00:49:28.653Z,11.75
2023-03-22T00:50:30.473Z,8.55
2023-03-22T00:51:34.345Z,7.90
2023-03-22T00:52:35.988Z,9.73
2023-03-22T00:53:41.118Z,8.43
2023-03-22T00:54:44.182Z,8.15
2023-03-22T00:55:46.096Z,9.43
2023-03-22T00:56:49.941Z,9.43
2023-03-22T00:57:52.047Z,6.35
2023-03-22T00:58:54.140Z,7.43
2023-03-22T00:59:56.140Z,6.43
2023-03-22T01:00:58.015Z,7.28
2023-03-22T01:01:59.814Z,7.88
2023-03-22T01:03:04.330Z,9.40
2023-03-22T01:04:06.793Z,8.10
2023-03-22T01:05:09.862Z,8.98
2023-03-22T01:06:11.813Z,7.30
2023-03-22T01:07:21.559Z,8.55
2023-03-22T01:08:24.583Z,6.80
2023-03-22T01:09:29.591Z,9.13
2023-03-22T01:10:31.745Z,9.02
2023-03-22T01:11:33.707Z,8.50
2023-03-22T01:12:36.218Z,10.73
2023-03-22T01:13:38.599Z,7.93
2023-03-22T01:14:41.048Z,7.32
2023-03-22T01:15:43.059Z,8.90
2023-03-22T01:16:44.982Z,11.48
2023-03-22T01:17:46.662Z,7.40
2023-03-22T01:18:48.336Z,10.20
2023-03-22T01:19:50.160Z,8.48
2023-03-22T01:20:52.331Z,8.57
2023-03-22T01:21:54.638Z,6.00
2023-03-22T01:22:56.805Z,7.70
2023-03-22T01:23:58.510Z,7.43
2023-03-22T01:25:00.306Z,8.38
2023-03-22T01:26:02.256Z,9.55
2023-03-22T01:27:03.994Z,8.80
2023-03-22T01:28:06.884Z,8.10
2023-03-22T01:29:09.139Z,9.07
2023-03-22T01:30:12.487Z,9.30
2023-03-22T01:31:15.602Z,9.68
2023-03-22T01:32:17.357Z,14.27
2023-03-22T01:33:19.184Z,9.93
2023-03-22T01:34:21.178Z,9.82
2023-03-22T01:35:23.420Z,9.55
2023-03-22T01:36:25.260Z,9.57
2023-03-22T01:37:28.757Z,8.98
2023-03-22T01:38:30.714Z,9.35
2023-03-22T01:39:32.433Z,10.30
2023-03-22T01:40:34.604Z,8.95
2023-03-22T01:41:37.711Z,6.68
2023-03-22T01:42:39.380Z,8.15
2023-03-22T01:43:41.025Z,10.25
2023-03-22T01:45:14.776Z,7.82
2023-03-22T01:46:16.821Z,7.93
2023-03-22T01:47:18.716Z,6.95
2023-03-22T01:48:28.809Z,8.40
2023-03-22T01:49:34.581Z,8.65
2023-03-22T01:50:39.265Z,7.82
2023-03-22T01:51:43.745Z,10.07
2023-03-22T01:52:45.602Z,7.10
2023-03-22T01:53:52.096Z,10.60
2023-03-22T01:54:57.086Z,8.68
2023-03-22T01:55:59.313Z,9.55
2023-03-22T01:57:02.535Z,8.80
2023-03-22T01:58:05.172Z,10.88
2023-03-22T01:59:08.895Z,8.82
2023-03-22T02:00:15.460Z,8.73
2023-03-22T02:01:18.208Z,8.48
2023-03-22T02:02:20.508Z,8.05
2023-03-22T02:03:36.869Z,8.82
2023-03-22T02:04:39.349Z,10.45
2023-03-22T02:05:41.496Z,11.18
2023-03-22T02:06:44.565Z,9.80
2023-03-22T02:07:46.399Z,9.68
2023-03-22T02:08:50.044Z,9.55
2023-03-22T02:09:52.956Z,12.45
2023-03-22T02:10:54.765Z,10.30
2023-03-22T02:12:15.075Z,9.07
2023-03-22T02:13:47.968Z,7.78
2023-03-22T02:15:05.294Z,9.25
2023-03-22T02:16:22.554Z,7.03
2023-03-22T02:17:42.627Z,9.07
2023-03-22T02:18:58.835Z,11.18
2023-03-22T02:20:11.462Z,8.35
2023-03-22T02:21:28.828Z,10.32
2023-03-22T02:22:40.616Z,10.63
2023-03-22T02:24:06.770Z,11.05
2023-03-22T02:25:32.252Z,9.30
2023-03-22T02:27:05.033Z,10.95
2023-03-22T02:28:29.102Z,11.43
2023-03-22T02:29:55.098Z,7.45
2023-03-22T02:31:00.160Z,9.60
2023-03-22T02:32:20.040Z,8.98
2023-03-22T02:33:46.753Z,7.65
2023-03-22T02:34:54.055Z,11.20
2023-03-22T02:36:03.922Z,9.10
2023-03-22T02:37:36.355Z,10.30
2023-03-22T02:39:06.901Z,10.23
2023-03-22T02:40:17.470Z,12.57
2023-03-22T02:41:45.803Z,8.60
2023-03-22T02:43:01.194Z,9.80
2023-03-22T02:44:38.429Z,10.02
2023-03-22T02:45:45.917Z,9.07
2023-03-22T02:47:13.685Z,9.27
2023-03-22T02:48:29.857Z,8.95
2023-03-22T02:49:41.425Z,11.90
2023-03-22T02:50:54.630Z,10.45
2023-03-22T02:52:12.657Z,11.77
2023-03-22T02:53:40.943Z,8.68
2023-03-22T02:54:49.105Z,14.05
2023-03-22T02:55:59.535Z,11.07
2023-03-22T02:57:07.732Z,10.35
2023-03-22T02:58:28.622Z,10.05
2023-03-22T02:59:33.009Z,9.43
2023-03-22T03:00:39.568Z,10.27
2023-03-22T03:01:47.509Z,11.07
2023-03-22T03:02:53.599Z,10.00
2023-03-22T03:04:02.429Z,7.88
2023-03-22T03:05:05.088Z,10.65
2023-03-22T03:06:16.565Z,11.00
2023-03-22T03:07:22.347Z,9.75
2023-03-22T03:08:26.343Z,11.07
2023-03-22T03:09:29.420Z,9.95
2023-03-22T03:10:32.543Z,9.00
2023-03-22T03:11:34.194Z,10.75
2023-03-22T03:12:35.889Z,8.70
2023-03-22T03:13:38.186Z,9.38
2023-03-22T03:14:40.553Z,10.88
2023-03-22T03:15:46.229Z,10.27
2023-03-22T03:16:53.904Z,9.95
2023-03-22T03:18:17.012Z,12.13
2023-03-22T03:19:29.820Z,11.15
2023-03-22T03:20:57.397Z,8.85
2023-03-22T03:22:22.534Z,9.18
2023-03-22T03:23:31.488Z,11.25
2023-03-22T03:24:58.889Z,11.20
2023-03-22T03:26:26.876Z,7.97
2023-03-22T03:27:58.201Z,9.55
2023-03-22T03:29:11.813Z,10.68
2023-03-22T03:30:25.157Z,13.05
2023-03-22T03:31:44.933Z,9.93
2023-03-22T03:32:59.279Z,9.02
2023-03-22T03:34:10.052Z,11.98
2023-03-22T03:35:22.906Z,10.93
2023-03-22T03:36:26.322Z,10.13
2023-03-22T03:37:34.682Z,9.57
2023-03-22T03:38:39.030Z,9.48
2023-03-22T03:39:47.081Z,11.85
2023-03-22T03:40:53.001Z,8.68
2023-03-22T03:41:56.298Z,10.35
2023-03-22T03:43:02.686Z,11.43
2023-03-22T03:44:05.177Z,11.50
2023-03-22T03:45:08.580Z,13.13
2023-03-22T03:46:10.823Z,11.48
2023-03-22T03:47:14.134Z,9.68
2023-03-22T03:48:19.909Z,10.48
2023-03-22T03:49:23.054Z,9.55
2023-03-22T03:50:25.943Z,9.65
2023-03-22T03:51:28.139Z,9.85
2023-03-22T03:52:30.083Z,8.77
2023-03-22T03:53:32.454Z,11.40
2023-03-22T03:54:34.189Z,9.82
2023-03-22T03:55:36.490Z,10.45
2023-03-22T03:56:38.187Z,14.52
2023-03-22T03:57:39.920Z,10.68
2023-03-22T03:58:41.881Z,10.55
2023-03-22T03:59:43.917Z,9.30
2023-03-22T04:00:47.171Z,11.75
2023-03-22T04:01:53.102Z,12.30
2023-03-22T04:02:54.925Z,10.95
2023-03-22T04:03:57.932Z,12.48
2023-03-22T04:04:59.718Z,10.68
2023-03-22T04:06:01.730Z,10.63
2023-03-22T04:07:05.788Z,12.63
2023-03-22T04:08:07.848Z,9.82
2023-03-22T04:09:10.155Z,10.15
2023-03-22T04:10:12.110Z,9.48
2023-03-22T04:11:13.883Z,10.95
2023-03-22T04:12:15.740Z,11.27
2023-03-22T04:13:21.449Z,8.75
2023-03-22T04:14:24.143Z,12.18
2023-03-22T04:15:26.148Z,13.02
2023-03-22T04:16:27.960Z,9.38
2023-03-22T04:17:29.671Z,11.15
2023-03-22T04:18:32.374Z,9.65
2023-03-22T04:19:34.152Z,9.30
2023-03-22T04:20:36.500Z,10.02
2023-03-22T04:21:38.581Z,8.40
2023-03-22T04:22:41.779Z,10.32
2023-03-22T04:23:46.932Z,8.00
2023-03-22T04:24:50.400Z,10.52
2023-03-22T04:25:52.440Z,12.82
2023-03-22T04:26:54.724Z,11.05
2023-03-22T04:27:56.761Z,10.95
2023-03-22T04:28:58.603Z,9.63
2023-03-22T04:30:01.047Z,9.00
2023-03-22T04:31:03.655Z,8.10
2023-03-22T04:32:05.644Z,11.77
2023-03-22T04:33:10.034Z,10.65
2023-03-22T04:34:12.186Z,9.05
2023-03-22T04:35:14.312Z,13.13
2023-03-22T04:36:17.378Z,9.35
2023-03-22T04:37:22.709Z,10.55
2023-03-22T04:38:25.353Z,13.05
2023-03-22T04:39:27.850Z,10.43
2023-03-22T04:40:35.313Z,8.85
2023-03-22T04:41:37.714Z,9.90
2023-03-22T04:42:39.692Z,9.55
2023-03-22T04:43:41.562Z,9.98
2023-03-22T04:44:43.348Z,9.32
2023-03-22T04:45:46.370Z,8.73
2023-03-22T04:46:48.280Z,9.98
2023-03-22T04:47:50.451Z,8.30
2023-03-22T04:48:52.264Z,12.70
2023-03-22T04:49:54.243Z,11.15
2023-03-22T04:50:57.296Z,10.25
2023-03-22T04:51:59.145Z,11.20
2023-03-22T04:53:00.866Z,10.07
2023-03-22T04:54:02.888Z,11.73
2023-03-22T04:55:05.131Z,9.57
2023-03-22T04:56:09.856Z,9.60
2023-03-22T04:57:11.544Z,10.10
2023-03-22T04:58:13.235Z,9.90
2023-03-22T04:59:18.034Z,8.80
2023-03-22T05:00:21.846Z,7.63
2023-03-22T05:01:23.625Z,9.27
2023-03-22T05:02:25.736Z,7.95
2023-03-22T05:03:27.598Z,10.25
2023-03-22T05:04:31.485Z,9.18
2023-03-22T05:05:33.351Z,9.43
2023-03-22T05:06:35.194Z,14.52
2023-03-22T05:07:36.956Z,8.73
2023-03-22T05:08:38.675Z,7.78
2023-03-22T05:09:40.786Z,8.93
2023-03-22T05:10:42.696Z,9.95
2023-03-22T05:11:44.466Z,8.18
2023-03-22T05:12:46.442Z,8.63
2023-03-22T05:13:48.235Z,8.25
2023-03-22T05:14:50.159Z,8.77
2023-03-22T05:15:52.765Z,7.28
2023-03-22T05:16:54.474Z,7.05
2023-03-22T05:17:56.305Z,9.45
2023-03-22T05:18:58.355Z,6.47
2023-03-22T05:20:07.291Z,6.50
2023-03-22T05:21:16.069Z,8.82
2023-03-22T05:22:19.420Z,5.60
2023-03-22T05:23:22.507Z,7.63
2023-03-22T05:24:24.389Z,9.40
2023-03-22T05:25:26.242Z,8.05
2023-03-22T05:26:28.077Z,6.60
2023-03-22T05:27:34.782Z,8.50
2023-03-22T05:28:37.658Z,7.35
2023-03-22T05:29:44.856Z,7.82
2023-03-22T05:30:47.112Z,7.07
2023-03-22T05:31:49.366Z,6.85
2023-03-22T05:32:51.236Z,6.78
2023-03-22T05:33:55.009Z,7.65
2023-03-22T05:34:57.046Z,6.38
2023-03-22T05:35:59.140Z,7.82
2023-03-22T05:37:01.357Z,6.30
2023-03-22T05:38:04.005Z,6.07
2023-03-22T05:39:05.814Z,6.75
2023-03-22T05:40:10.894Z,7.15
2023-03-22T05:41:14.182Z,7.45
2023-03-22T05:42:15.876Z,8.32
2023-03-22T05:43:17.978Z,7.15
2023-03-22T05:44:19.883Z,8.57
2023-03-22T05:45:22.330Z,9.50
2023-03-22T05:46:24.645Z,9.45
2023-03-22T05:47:26.778Z,6.80
2023-03-22T05:48:28.444Z,8.15
2023-03-22T05:49:31.162Z,7.10
2023-03-22T05:50:33.454Z,6.55
2023-03-22T05:51:42.121Z,10.15
2023-03-22T05:52:45.582Z,9.43
2023-03-22T05:53:48.063Z,8.43
2023-03-22T05:57:35.609Z,7.53
2023-03-22T05:58:37.725Z,9.18
2023-03-22T05:59:39.709Z,7.95
2023-03-22T06:00:41.848Z,10.48
2023-03-22T06:01:43.673Z,9.68
2023-03-22T06:02:47.977Z,10.05
2023-03-22T06:03:49.690Z,10.00
2023-03-22T06:04:53.158Z,10.05
2023-03-22T06:05:54.965Z,7.80
2023-03-22T06:06:56.641Z,9.57
2023-03-22T06:07:58.956Z,8.60
2023-03-22T06:09:10.711Z,10.00
2023-03-22T06:10:18.229Z,7.30
2023-03-22T06:11:19.894Z,10.32
2023-03-22T06:12:24.652Z,10.43
2023-03-22T06:13:26.718Z,7.05
2023-03-22T06:14:28.741Z,9.52
2023-03-22T06:15:30.443Z,10.43
2023-03-22T06:16:33.655Z,10.55
2023-03-22T06:17:35.644Z,11.40
2023-03-22T06:18:38.022Z,9.07
2023-03-22T06:19:39.726Z,8.73
2023-03-22T06:20:42.307Z,8.82
2023-03-22T06:21:44.490Z,9.60
2023-03-22T06:22:46.448Z,8.25
2023-03-22T06:23:48.109Z,8.13
2023-03-22T06:24:50.149Z,9.55
2023-03-22T06:25:53.543Z,8.98
2023-03-22T06:26:55.561Z,8.40
2023-03-22T06:27:57.300Z,7.75
2023-03-22T06:28:59.043Z,10.25
2023-03-22T06:30:01.125Z,9.57
2023-03-22T06:31:08.201Z,8.30
2023-03-22T06:32:11.774Z,9.07
2023-03-22T06:33:15.704Z,9.07
2023-03-22T06:34:17.425Z,10.88
2023-03-22T06:35:19.087Z,9.57
2023-03-22T06:36:21.273Z,10.60
2023-03-22T06:37:24.491Z,10.88
2023-03-22T06:38:26.355Z,9.88
2023-03-22T06:39:28.609Z,8.98
2023-03-22T06:40:30.316Z,8.93
2023-03-22T06:41:32.416Z,12.43
2023-03-22T06:42:36.543Z,8.63
2023-03-22T06:43:38.359Z,8.73
2023-03-22T06:44:43.859Z,10.13
2023-03-22T06:45:49.129Z,7.53
2023-03-22T06:46:51.292Z,9.65
2023-03-22T06:47:52.989Z,11.60
2023-03-22T06:48:54.820Z,8.43
2023-03-22T06:49:56.542Z,9.55
2023-03-22T06:50:59.771Z,7.25
2023-03-22T06:52:01.629Z,8.95
2023-03-22T06:53:04.498Z,9.93
2023-03-22T06:54:06.138Z,7.38
2023-03-22T06:55:08.325Z,9.85
2023-03-22T06:56:10.151Z,9.35
2023-03-22T06:57:13.034Z,11.30
2023-03-22T06:58:14.731Z,10.02
2023-03-22T06:59:16.419Z,6.28
2023-03-22T07:00:18.717Z,8.13
2023-03-22T07:01:21.690Z,7.90
2023-03-22T07:02:23.347Z,9.85
2023-03-22T07:03:25.075Z,8.63
2023-03-22T07:04:28.394Z,8.25
2023-03-22T07:05:30.507Z,11.70
2023-03-22T07:06:32.782Z,7.20
2023-03-22T07:07:34.384Z,8.07
2023-03-22T07:08:39.097Z,7.63
2023-03-22T07:09:41.125Z,7.45
2023-03-22T07:10:43.731Z,7.15
2023-03-22T07:11:45.454Z,7.63
2023-03-22T07:12:47.122Z,7.50
2023-03-22T07:13:49.034Z,9.30
2023-03-22T07:14:50.813Z,10.88
2023-03-22T07:16:00.642Z,7.70
2023-03-22T07:17:02.372Z,9.75
2023-03-22T07:18:07.866Z,8.73
2023-03-22T07:19:09.936Z,10.48
2023-03-22T07:20:11.696Z,9.20
2023-03-22T07:21:13.298Z,8.48
2023-03-22T07:22:15.480Z,9.07
2023-03-22T07:23:17.881Z,9.82
2023-03-22T07:24:19.766Z,12.70
2023-03-22T07:25:21.645Z,10.82
2023-03-22T07:26:23.662Z,12.32
2023-03-22T07:27:25.900Z,11.25
2023-03-22T07:28:27.939Z,9.15
2023-03-22T07:29:29.924Z,8.98
2023-03-22T07:30:31.568Z,12.00
2023-03-22T07:31:36.524Z,9.52
2023-03-22T07:32:41.656Z,11.07
2023-03-22T07:33:43.683Z,8.07
2023-03-22T07:34:45.610Z,8.52
2023-03-22T07:35:49.050Z,9.27
2023-03-22T07:36:51.076Z,11.52
2023-03-22T07:37:53.252Z,9.63
2023-03-22T07:38:56.335Z,9.90
2023-03-22T07:39:58.204Z,6.80
2023-03-22T07:41:00.663Z,8.75
2023-03-22T07:42:02.751Z,11.30
2023-03-22T07:43:04.504Z,9.52
2023-03-22T07:44:17.375Z,8.30
2023-03-22T07:45:20.896Z,9.55
2023-03-22T07:46:22.819Z,8.45
2023-03-22T07:47:39.918Z,8.60
2023-03-22T07:48:42.367Z,11.07
2023-03-22T07:49:44.120Z,8.40
2023-03-22T07:50:45.915Z,8.10
2023-03-22T07:51:47.590Z,6.82
2023-03-22T07:52:49.276Z,7.07
2023-03-22T07:53:50.942Z,7.22
2023-03-22T07:54:52.649Z,7.95
2023-03-22T07:55:54.516Z,6.00
2023-03-22T07:56:56.322Z,5.47
2023-03-22T07:57:57.992Z,6.13
2023-03-22T07:58:59.780Z,7.40
2023-03-22T08:00:01.650Z,6.28
2023-03-22T08:01:12.881Z,6.50
2023-03-22T08:02:14.598Z,6.97
2023-03-22T08:03:16.403Z,7.32
2023-03-22T08:04:19.478Z,7.00
2023-03-22T08:05:22.883Z,8.40
2023-03-22T08:06:24.502Z,4.75
2023-03-22T08:07:26.279Z,5.80
2023-03-22T08:08:27.907Z,6.15
2023-03-22T08:09:29.638Z,6.47
2023-03-22T08:10:32.840Z,6.72
2023-03-22T08:11:35.396Z,6.40
2023-03-22T08:12:37.115Z,6.68
2023-03-22T08:13:39.879Z,5.57
2023-03-22T08:14:41.903Z,4.10
2023-03-22T08:15:43.590Z,4.00
2023-03-22T08:16:45.716Z,5.97
2023-03-22T08:17:50.113Z,4.40
2023-03-22T08:18:51.861Z,5.10
2023-03-22T08:19:56.837Z,4.50
2023-03-22T08:21:00.043Z,5.40
2023-03-22T08:22:02.105Z,4.65
2023-03-22T08:23:03.885Z,5.35
2023-03-22T08:24:06.265Z,5.20
2023-03-22T08:25:08.632Z,5.05
2023-03-22T08:26:11.057Z,4.65
2023-03-22T08:27:14.140Z,4.80
2023-03-22T08:28:16.147Z,3.88
2023-03-22T08:29:18.686Z,5.93
2023-03-22T08:30:22.027Z,4.43
2023-03-22T08:31:23.943Z,5.82
2023-03-22T08:32:27.837Z,3.75
2023-03-22T08:33:29.533Z,3.92
2023-03-22T08:34:33.171Z,4.25
2023-03-22T08:35:35.096Z,3.30
2023-03-22T08:36:38.005Z,4.57
2023-03-22T08:37:40.285Z,4.20
2023-03-22T08:38:45.411Z,3.80
2023-03-22T08:39:47.552Z,3.70
2023-03-22T08:40:49.299Z,4.40
2023-03-22T08:41:50.952Z,3.60
2023-03-22T08:42:52.672Z,3.83
2023-03-22T08:43:54.401Z,4.88
2023-03-22T08:44:56.571Z,5.82
2023-03-22T08:45:58.790Z,4.32
2023-03-22T08:47:02.271Z,4.15
2023-03-22T08:48:05.007Z,3.90
2023-03-22T08:49:06.862Z,3.80
2023-03-22T08:50:10.653Z,4.00
2023-03-22T08:51:12.527Z,6.53
2023-03-22T08:52:14.244Z,5.13
2023-03-22T08:53:16.302Z,4.95
2023-03-22T08:54:18.227Z,3.83
2023-03-22T08:55:21.078Z,3.95
2023-03-22T08:56:24.794Z,5.97
2023-03-22T08:57:27.636Z,3.80
2023-03-22T08:58:29.698Z,5.13
2023-03-22T08:59:31.409Z,4.60
2023-03-22T09:00:47.417Z,3.10
2023-03-22T09:01:50.277Z,6.07
2023-03-22T09:02:52.183Z,4.18
2023-03-22T09:03:53.927Z,5.55
2023-03-22T09:04:55.793Z,3.47
2023-03-22T09:05:57.748Z,4.20
2023-03-22T09:06:59.402Z,3.67
2023-03-22T09:08:06.593Z,3.40
2023-03-22T09:09:08.696Z,2.97
2023-03-22T09:10:11.240Z,3.47
2023-03-22T09:11:13.404Z,3.83
2023-03-22T09:12:15.701Z,3.58
2023-03-22T09:13:18.189Z,3.42
2023-03-22T09:14:19.999Z,4.18
2023-03-22T09:15:21.693Z,3.50
2023-03-22T09:16:23.524Z,3.90
2023-03-22T09:17:25.596Z,3.10
2023-03-22T09:18:27.663Z,3.97
2023-03-22T09:19:29.591Z,3.70
2023-03-22T09:20:31.288Z,3.85
2023-03-22T09:21:34.071Z,2.38
2023-03-22T09:22:36.215Z,4.30
2023-03-22T09:23:39.290Z,3.85
2023-03-22T09:24:41.435Z,4.75
2023-03-22T09:25:44.380Z,4.20
2023-03-22T09:26:47.809Z,3.97
2023-03-22T09:27:50.009Z,5.05
2023-03-22T09:28:51.890Z,3.92
2023-03-22T09:29:53.571Z,3.28
2023-03-22T09:30:55.414Z,4.22
2023-03-22T09:31:57.211Z,3.15
2023-03-22T09:32:58.875Z,3.88
2023-03-22T09:34:00.936Z,3.92
2023-03-22T09:35:02.706Z,3.13
2023-03-22T09:36:04.809Z,3.75
2023-03-22T09:37:07.036Z,4.80
2023-03-22T09:38:09.139Z,4.88
2023-03-22T09:39:11.268Z,3.58
2023-03-22T09:40:13.355Z,3.95
2023-03-22T09:41:24.976Z,4.10
2023-03-22T09:42:35.245Z,2.88
2023-03-22T09:43:51.370Z,3.35
2023-03-22T09:44:54.563Z,4.65
2023-03-22T09:45:56.423Z,3.00
2023-03-22T09:47:00.553Z,3.17
2023-03-22T09:48:05.493Z,4.78
2023-03-22T09:49:13.838Z,4.20
2023-03-22T09:50:22.414Z,3.92
2023-03-22T09:51:38.105Z,2.92
2023-03-22T09:52:41.103Z,3.60
2023-03-22T09:53:42.842Z,3.72
2023-03-22T09:54:46.850Z,4.50
2023-03-22T09:56:15.361Z,4.15
2023-03-22T09:57:37.471Z,3.05
2023-03-22T09:59:07.050Z,4.40
2023-03-22T10:00:14.484Z,5.07
2023-03-22T10:01:44.083Z,3.75
2023-03-22T10:02:45.880Z,3.47
2023-03-22T10:04:09.747Z,4.68
2023-03-22T10:05:18.853Z,3.63
2023-03-22T10:06:29.402Z,3.70
2023-03-22T10:08:11.226Z,3.72
2023-03-22T10:09:31.139Z,3.70
2023-03-22T10:10:33.358Z,3.88
2023-03-22T10:12:05.030Z,5.78
2023-03-22T10:13:28.595Z,3.22
2023-03-22T10:14:36.398Z,3.80
2023-03-22T10:15:43.224Z,3.45
2023-03-22T10:16:45.848Z,3.33
2023-03-22T10:17:52.582Z,3.80
2023-03-22T10:19:04.368Z,2.83
2023-03-22T10:20:14.728Z,3.33
2023-03-22T10:21:18.154Z,3.80
2023-03-22T10:22:25.125Z,3.35
2023-03-22T10:23:35.791Z,3.08
2023-03-22T10:24:40.473Z,3.20
2023-03-22T10:25:43.694Z,5.03
2023-03-22T10:26:48.147Z,5.53
2023-03-22T10:27:51.507Z,4.43
2023-03-22T10:29:05.284Z,4.10
2023-03-22T10:30:13.299Z,3.30
2023-03-22T10:31:21.197Z,3.42
2023-03-22T10:32:31.877Z,6.68
2023-03-22T10:33:50.346Z,4.30
2023-03-22T10:34:52.581Z,3.22
2023-03-22T10:35:55.148Z,3.65
2023-03-22T10:37:01.160Z,4.85
2023-03-22T10:38:07.245Z,4.22
2023-03-22T10:39:33.475Z,3.80
2023-03-22T10:40:37.468Z,3.45
2023-03-22T10:41:39.815Z,5.20
2023-03-22T10:42:52.527Z,3.58
2023-03-22T10:44:00.262Z,3.90
2023-03-22T10:45:08.819Z,4.38
2023-03-22T10:46:19.315Z,3.60
2023-03-22T10:47:32.630Z,4.20
2023-03-22T10:48:39.481Z,3.65
2023-03-22T10:49:48.260Z,3.85
2023-03-22T10:50:50.226Z,4.57
2023-03-22T10:51:55.328Z,4.80
2023-03-22T10:53:27.607Z,3.70
2023-03-22T10:54:30.307Z,3.33
2023-03-22T10:55:32.003Z,2.95
2023-03-22T10:56:33.771Z,3.13
2023-03-22T10:57:35.498Z,4.78
2023-03-22T10:58:37.173Z,4.40
2023-03-22T10:59:55.382Z,4.38
2023-03-22T11:01:09.642Z,4.20
2023-03-22T11:02:30.539Z,3.38
2023-03-22T11:03:43.024Z,3.60
2023-03-22T11:04:53.358Z,2.97
2023-03-22T11:06:07.064Z,5.38
2023-03-22T11:07:26.188Z,5.32
2023-03-22T11:08:27.928Z,4.90
2023-03-22T11:09:29.624Z,3.60
2023-03-22T11:10:33.426Z,3.10
2023-03-22T11:11:38.449Z,2.78
2023-03-22T11:12:46.900Z,3.75
2023-03-22T11:14:26.073Z,3.65
2023-03-22T11:15:33.940Z,2.83
2023-03-22T11:16:48.225Z,4.15
2023-03-22T11:17:50.648Z,2.78
2023-03-22T11:18:52.703Z,3.60
2023-03-22T11:19:58.726Z,3.65
2023-03-22T11:21:08.016Z,4.05
2023-03-22T11:22:46.403Z,3.75
2023-03-22T11:24:07.594Z,3.45
2023-03-22T11:25:25.968Z,3.65
2023-03-22T11:26:39.192Z,3.33
2023-03-22T11:28:05.698Z,3.20
2023-03-22T11:29:13.947Z,3.63
2023-03-22T11:30:26.418Z,3.95
2023-03-22T11:31:47.536Z,3.03
2023-03-22T11:32:49.729Z,3.20
2023-03-22T11:34:01.574Z,3.20
2023-03-22T11:35:21.300Z,2.63
2023-03-22T11:36:23.411Z,4.10
2023-03-22T11:37:26.465Z,4.85
2023-03-22T11:38:40.512Z,4.38
2023-03-22T11:39:49.524Z,3.63
2023-03-22T11:40:59.111Z,3.30
2023-03-22T11:42:06.272Z,2.97
2023-03-22T11:43:19.333Z,2.47
2023-03-22T11:44:22.876Z,3.08
2023-03-22T11:45:34.265Z,3.13
2023-03-22T11:46:37.681Z,4.43
2023-03-22T11:47:40.452Z,3.00
2023-03-22T11:48:42.842Z,3.22
2023-03-22T11:49:50.243Z,3.50
2023-03-22T11:50:59.533Z,4.57
2023-03-22T11:52:10.130Z,4.25
2023-03-22T11:53:16.925Z,3.97
2023-03-22T11:54:34.385Z,3.47
2023-03-22T11:55:36.973Z,6.18
2023-03-22T11:56:45.568Z,4.18
2023-03-22T11:57:47.908Z,3.60
2023-03-22T11:59:15.735Z,2.88
2023-03-22T12:00:24.732Z,3.60
2023-03-22T12:01:44.699Z,2.78
2023-03-22T12:02:56.236Z,2.70
2023-03-22T12:03:59.143Z,3.08
2023-03-22T12:05:09.409Z,3.75
2023-03-22T12:06:25.280Z,3.20
2023-03-22T12:07:31.331Z,4.60
2023-03-22T12:09:05.966Z,2.78
2023-03-22T12:10:17.079Z,3.65
2023-03-22T12:11:38.135Z,3.17
2023-03-22T12:12:46.435Z,2.55
2023-03-22T12:13:51.205Z,3.83
2023-03-22T12:15:22.370Z,3.50
2023-03-22T12:16:33.096Z,3.35
2023-03-22T12:17:40.912Z,4.38
2023-03-22T12:18:50.870Z,3.70
2023-03-22T12:20:07.751Z,3.90
2023-03-22T12:21:12.253Z,4.43
2023-03-22T12:22:17.279Z,3.13
2023-03-22T12:23:22.285Z,3.42
2023-03-22T12:24:30.269Z,2.90
2023-03-22T12:25:35.845Z,4.53
2023-03-22T12:26:39.126Z,2.95
2023-03-22T12:27:43.779Z,3.60
2023-03-22T12:28:58.159Z,3.50
2023-03-22T12:30:12.221Z,3.60
2023-03-22T12:31:20.016Z,3.70
2023-03-22T12:32:29.955Z,3.63
2023-03-22T12:33:41.723Z,3.97
2023-03-22T12:34:48.200Z,3.97
2023-03-22T12:35:56.900Z,4.45
2023-03-22T12:37:01.505Z,4.35
2023-03-22T12:38:30.494Z,3.70
2023-03-22T12:39:40.243Z,3.45
2023-03-22T12:40:47.734Z,3.38
2023-03-22T12:41:52.960Z,3.78
2023-03-22T12:43:32.616Z,3.72
2023-03-22T12:44:39.408Z,3.20
2023-03-22T12:45:46.057Z,3.20
2023-03-22T12:47:01.107Z,3.83
2023-03-22T12:48:16.026Z,3.35
2023-03-22T12:49:33.937Z,2.97
2023-03-22T12:51:08.472Z,3.42
2023-03-22T12:52:21.726Z,3.28
2023-03-22T12:53:29.819Z,2.92
2023-03-22T12:54:31.744Z,3.63
2023-03-22T12:55:37.768Z,3.20
2023-03-22T12:56:43.334Z,3.58
2023-03-22T12:57:51.201Z,3.13
2023-03-22T12:58:58.319Z,3.42
2023-03-22T13:00:10.444Z,3.80
2023-03-22T13:01:52.208Z,4.10
2023-03-22T13:03:18.756Z,3.72
2023-03-22T13:04:35.036Z,3.83
2023-03-22T13:05:37.340Z,3.47
2023-03-22T13:06:45.416Z,2.78
2023-03-22T13:07:47.479Z,3.78
2023-03-22T13:09:18.609Z,4.05
2023-03-22T13:10:32.957Z,2.97
2023-03-22T13:11:35.552Z,3.50
2023-03-22T13:12:37.251Z,3.72
2023-03-22T13:13:44.444Z,4.18
2023-03-22T13:14:51.942Z,4.55
2023-03-22T13:16:16.326Z,6.53
2023-03-22T13:17:23.580Z,4.82
2023-03-22T13:18:42.995Z,3.90
2023-03-22T13:19:55.115Z,3.60
2023-03-22T13:21:20.222Z,3.97
2023-03-22T13:22:29.832Z,3.72
2023-03-22T13:23:32.655Z,3.00
2023-03-22T13:24:34.819Z,3.13
2023-03-22T13:25:38.797Z,3.42
2023-03-22T13:26:49.091Z,4.28
2023-03-22T13:28:09.864Z,3.03
2023-03-22T13:29:21.974Z,2.85
2023-03-22T13:30:25.990Z,3.65
2023-03-22T13:31:59.951Z,3.55
2023-03-22T13:33:11.300Z,3.50
2023-03-22T13:34:23.408Z,3.22
2023-03-22T13:35:28.621Z,4.25
2023-03-22T13:36:32.058Z,4.65
2023-03-22T13:37:42.103Z,4.20
2023-03-22T13:38:53.301Z,3.67
2023-03-22T13:39:56.379Z,3.13
2023-03-22T13:41:08.185Z,4.68
2023-03-22T13:42:19.743Z,3.63
2023-03-22T13:43:27.127Z,3.10
2023-03-22T13:44:35.660Z,3.45
2023-03-22T13:45:38.100Z,3.58
2023-03-22T13:46:44.271Z,3.08
2023-03-22T13:47:46.937Z,3.00
2023-03-22T13:48:49.247Z,4.40
2023-03-22T13:49:58.460Z,4.03
2023-03-22T13:51:33.458Z,3.47
2023-03-22T13:52:42.229Z,4.65
2023-03-22T13:53:56.946Z,5.75
2023-03-22T13:54:59.738Z,3.55
2023-03-22T13:56:05.961Z,3.67
2023-03-22T13:57:20.297Z,2.88
2023-03-22T13:58:46.580Z,3.00
2023-03-22T14:00:10.321Z,4.38
2023-03-22T14:01:36.864Z,3.17
2023-03-22T14:02:42.181Z,2.90
2023-03-22T14:03:47.534Z,4.18
2023-03-22T14:05:02.009Z,4.25
2023-03-22T14:06:18.896Z,2.72
2023-03-22T14:07:28.804Z,4.10
2023-03-22T14:08:32.841Z,3.72
2023-03-22T14:10:00.325Z,4.13
2023-03-22T14:11:20.839Z,2.85
2023-03-22T14:12:57.278Z,3.85
2023-03-22T14:14:07.562Z,4.20
2023-03-22T14:15:14.569Z,5.45
2023-03-22T14:16:21.845Z,4.13
2023-03-22T14:17:45.260Z,3.75
2023-03-22T14:18:49.656Z,4.05
2023-03-22T14:19:52.363Z,4.18
2023-03-22T14:20:59.841Z,4.15
